CLT weather

Charlotte Douglas International Airport
Charlotte, North Carolina, United States

Public forecast

Using degrees Fahrenheit for public forecast. Weather courtesy of forecast.io.

METAR (pilot weather report)

Retrieved 2017/05/28 22:52 UTC (1 hour ago):

KCLT 282252Z 27007KT 240V300 10SM FEW047 SCT100 BKN250 28/18 A2984 RMK AO2 SLP096 CB DSNT NE TCU DSNT NW-N T02830178

TAF (pilot weather forecast)

Retrieved 2017/05/28 18:33 UTC (5 hours ago):

TAF KCLT 281730Z 2818/2918 24009KT P6SM FEW040 SCT070 BKN250 FM282100 25009KT P6SM VCSH SCT050 BKN250 FM290200 26004KT P6SM SCT100 BKN200 FM291500 28006KT P6SM SCT110